Tenko Maru — HPRN — position and weather

sailwx.info

Track history (hours):
 
Tides and Currents Weather Stations Pressure Air Temp Water Temp Dewpoint Dewpoint Depression Visibility Wind Speed Wind Dir Waves Ship Positions

Tenko Maru

Last reported at 2016-Apr-15 03:33 UTC. Time now 2016-May-02 10:43 UTC.
Position N 01°53' E 102°26'.
Warning: this ship's position is 17 days out of date.

Length 190 m; draft 11.3 m.

Type: Cargo ship. MMSI: 370715000.

Date/timePositionNaut miles runAvg speedWind from/ knotsBaromVisibWave heightAir tempDewpointWater temp
2016-Apr-15 03:33N 01°53' E 102°26'1211.9
2016-Apr-15 02:33N 01°48' E 102°37'1212.0
2016-Apr-15 01:32N 01°43' E 102°48'5611.2
2016-Apr-14 20:33N 01°12' E 103°34'1111.1
2016-Apr-14 19:33N 01°09' E 103°45'1211.8
2016-Apr-14 18:33N 01°14' E 103°55'5 1.9
2016-Apr-14 16:10N 01°17' E 103°58'0 0.0
2016-Apr-14 14:22N 01°17' E 103°58'0 0.0
2016-Apr-14 13:28N 01°17' E 103°58'0 0.0
2016-Apr-14 12:13N 01°17' E 103°58'0 0.0
2016-Apr-14 11:19N 01°17' E 103°58'0 0.1
2016-Apr-14 08:10N 01°17' E 103°58'0 0.0
2016-Apr-14 07:16N 01°17' E 103°58'0 0.0
2016-Apr-14 06:22N 01°17' E 103°58'0 0.0
2016-Apr-14 05:28N 01°17' E 103°58'0 0.0
2016-Apr-14 04:31N 01°17' E 103°58'1 1.4
2016-Apr-14 03:33N 01°17' E 103°60'1 1.2
2016-Apr-14 02:33N 01°16' E 104°01'5 5.0
2016-Apr-14 01:33N 01°16' E 104°06'  
2016-Apr-07 20:24N 23°50' E 118°24'2011.0
2016-Apr-07 18:33N 24°03' E 118°41'1211.5
2016-Apr-07 17:33N 24°10' E 118°50'1111.0
2016-Apr-07 16:33N 24°18' E 118°59'1210.7
2016-Apr-07 15:28N 24°26' E 119°09'30 9.6
2016-Apr-07 12:17N 24°47' E 119°32'10 8.9
2016-Apr-07 11:11N 24°53' E 119°41'6 8.3
2016-Apr-07 10:30N 24°57' E 119°46'10 8.5
2016-Apr-07 09:19N 25°04' E 119°53'387 8.1
2016-Apr-05 09:30N 31°19' E 121°44'1111.7
2016-Apr-05 08:33N 31°24' E 121°33'9 8.6
2016-Apr-05 07:33N 31°30' E 121°25'1110.9
2016-Apr-05 06:33N 31°37' E 121°16'1212.4
2016-Apr-05 05:33N 31°45' E 121°05'8 7.8
2016-Apr-05 04:31N 31°49' E 120°57'  
Track history (hours):
 
Tides and Currents Weather Stations Pressure Air Temp Water Temp Dewpoint Dewpoint Depression Visibility Wind Speed Wind Dir Waves Ship Positions

Tenko Maru

Last reported at 2016-Apr-15 03:33 UTC. Time now 2016-May-02 10:43 UTC.
Position N 01°53' E 102°26'.
Warning: this ship's position is 17 days out of date.

Length 190 m; draft 11.3 m.

Type: Cargo ship. MMSI: 370715000.

Date/timePositionNaut miles runAvg speedWind from/ knotsBaromVisibWave heightAir tempDewpointWater temp
2016-Apr-15 03:33N 01°53' E 102°26'1211.9
2016-Apr-15 02:33N 01°48' E 102°37'1212.0
2016-Apr-15 01:32N 01°43' E 102°48'5611.2
2016-Apr-14 20:33N 01°12' E 103°34'1111.1
2016-Apr-14 19:33N 01°09' E 103°45'1211.8
2016-Apr-14 18:33N 01°14' E 103°55'5 1.9
2016-Apr-14 16:10N 01°17' E 103°58'0 0.0
2016-Apr-14 14:22N 01°17' E 103°58'0 0.0
2016-Apr-14 13:28N 01°17' E 103°58'0 0.0
2016-Apr-14 12:13N 01°17' E 103°58'0 0.0
2016-Apr-14 11:19N 01°17' E 103°58'0 0.1
2016-Apr-14 08:10N 01°17' E 103°58'0 0.0
2016-Apr-14 07:16N 01°17' E 103°58'0 0.0
2016-Apr-14 06:22N 01°17' E 103°58'0 0.0
2016-Apr-14 05:28N 01°17' E 103°58'0 0.0
2016-Apr-14 04:31N 01°17' E 103°58'1 1.4
2016-Apr-14 03:33N 01°17' E 103°60'1 1.2
2016-Apr-14 02:33N 01°16' E 104°01'5 5.0
2016-Apr-14 01:33N 01°16' E 104°06'  
2016-Apr-07 20:24N 23°50' E 118°24'2011.0
2016-Apr-07 18:33N 24°03' E 118°41'1211.5
2016-Apr-07 17:33N 24°10' E 118°50'1111.0
2016-Apr-07 16:33N 24°18' E 118°59'1210.7
2016-Apr-07 15:28N 24°26' E 119°09'30 9.6
2016-Apr-07 12:17N 24°47' E 119°32'10 8.9
2016-Apr-07 11:11N 24°53' E 119°41'6 8.3
2016-Apr-07 10:30N 24°57' E 119°46'10 8.5
2016-Apr-07 09:19N 25°04' E 119°53'387 8.1
2016-Apr-05 09:30N 31°19' E 121°44'1111.7
2016-Apr-05 08:33N 31°24' E 121°33'9 8.6
2016-Apr-05 07:33N 31°30' E 121°25'1110.9
2016-Apr-05 06:33N 31°37' E 121°16'1212.4
2016-Apr-05 05:33N 31°45' E 121°05'8 7.8
2016-Apr-05 04:31N 31°49' E 120°57'  

Dump ship's entire track history